createdAt,value
2024-02-11T00:00:32.579Z,6.10
2024-02-11T00:02:59.063Z,6.07
2024-02-11T00:05:27.539Z,6.13
2024-02-11T00:08:00.104Z,6.97
2024-02-11T00:10:26.501Z,5.93
2024-02-11T00:12:52.919Z,6.17
2024-02-11T00:15:19.985Z,6.73
2024-02-11T00:17:47.820Z,5.90
2024-02-11T00:20:15.225Z,6.63
2024-02-11T00:22:42.307Z,6.60
2024-02-11T00:25:10.171Z,5.80
2024-02-11T00:27:40.420Z,5.70
2024-02-11T00:30:07.346Z,6.90
2024-02-11T00:32:33.953Z,6.83
2024-02-11T00:35:00.724Z,7.07
2024-02-11T00:37:30.477Z,6.47
2024-02-11T00:39:57.975Z,6.30
2024-02-11T00:42:28.377Z,6.77
2024-02-11T00:44:55.724Z,7.00
2024-02-11T00:47:23.076Z,6.43
2024-02-11T00:49:49.596Z,5.80
2024-02-11T00:52:18.857Z,6.50
2024-02-11T00:54:45.262Z,5.73
2024-02-11T00:57:11.745Z,5.93
2024-02-11T00:59:42.072Z,5.80
2024-02-11T01:02:08.875Z,5.70
2024-02-11T01:04:40.721Z,5.80
2024-02-11T01:07:07.886Z,5.93
2024-02-11T01:09:34.765Z,5.87
2024-02-11T01:12:01.716Z,6.17
2024-02-11T01:14:30.810Z,5.87
2024-02-11T01:16:57.308Z,6.03
2024-02-11T01:19:23.736Z,5.73
2024-02-11T01:21:50.130Z,6.20
2024-02-11T01:24:17.228Z,6.00
2024-02-11T01:26:43.598Z,6.43
2024-02-11T01:29:10.085Z,6.53
2024-02-11T01:31:36.940Z,6.53
2024-02-11T01:34:06.533Z,5.67
2024-02-11T01:36:33.038Z,6.97
2024-02-11T01:38:59.367Z,6.10
2024-02-11T01:41:25.731Z,6.30
2024-02-11T01:43:52.129Z,5.77
2024-02-11T01:46:18.504Z,6.27
2024-02-11T01:48:44.973Z,6.43
2024-02-11T01:51:11.457Z,6.70
2024-02-11T01:53:38.961Z,6.40
2024-02-11T01:56:06.363Z,7.10
2024-02-11T01:58:33.578Z,6.93
2024-02-11T02:01:00.805Z,6.60
2024-02-11T02:03:27.186Z,6.73
2024-02-11T02:05:54.629Z,6.13
2024-02-11T02:08:22.376Z,7.23
2024-02-11T02:10:48.948Z,7.33
2024-02-11T02:13:15.340Z,7.07
2024-02-11T02:15:41.688Z,6.97
2024-02-11T02:18:09.227Z,7.13
2024-02-11T02:20:35.916Z,9.50
2024-02-11T02:23:02.735Z,9.30
2024-02-11T02:25:29.211Z,7.83
2024-02-11T02:27:55.574Z,10.03
2024-02-11T02:30:23.469Z,14.10
2024-02-11T02:32:49.858Z,11.97
2024-02-11T02:35:22.329Z,10.97
2024-02-11T02:37:52.098Z,9.13
2024-02-11T02:40:18.497Z,10.43
2024-02-11T02:42:44.856Z,11.80
2024-02-11T02:45:13.768Z,13.40
2024-02-11T02:47:40.145Z,11.07
2024-02-11T02:50:09.063Z,10.57
2024-02-11T02:52:37.462Z,11.33
2024-02-11T02:55:06.961Z,10.03
2024-02-11T02:57:34.841Z,10.43
2024-02-11T03:00:06.419Z,10.10
2024-02-11T03:02:33.733Z,11.63
2024-02-11T03:05:00.206Z,10.83
2024-02-11T03:07:26.637Z,10.10
2024-02-11T03:09:53.002Z,11.37
2024-02-11T03:12:19.399Z,11.47
2024-02-11T03:14:45.935Z,12.67
2024-02-11T03:17:12.434Z,11.60
2024-02-11T03:19:38.864Z,11.27
2024-02-11T03:22:05.300Z,12.13
2024-02-11T03:24:31.671Z,12.63
2024-02-11T03:26:58.065Z,13.83
2024-02-11T03:29:24.469Z,12.87
2024-02-11T03:31:50.907Z,13.67
2024-02-11T03:34:17.473Z,12.93
2024-02-11T03:36:43.986Z,13.17
2024-02-11T03:39:10.608Z,12.30
2024-02-11T03:41:37.376Z,9.90
2024-02-11T03:44:03.916Z,7.80
2024-02-11T03:46:30.257Z,4.53
2024-02-11T03:48:59.528Z,2.90
2024-02-11T03:51:26.123Z,1.27
2024-02-11T03:53:52.479Z,0.80
2024-02-11T03:56:23.116Z,0.90
2024-02-11T03:58:51.068Z,0.70
2024-02-11T04:01:17.860Z,0.70
2024-02-11T04:03:44.328Z,0.70
2024-02-11T04:06:12.837Z,0.73
2024-02-11T04:08:44.956Z,1.00
2024-02-11T04:11:11.544Z,0.80
2024-02-11T04:13:38.156Z,0.80
2024-02-11T04:16:16.914Z,0.80
2024-02-11T04:18:48.571Z,1.13
2024-02-11T04:21:16.603Z,0.90
2024-02-11T04:23:47.905Z,0.80
2024-02-11T04:26:15.199Z,0.80
2024-02-11T04:28:42.531Z,1.10
2024-02-11T04:31:12.759Z,1.00
2024-02-11T04:33:40.373Z,1.20
2024-02-11T04:36:08.471Z,1.20
2024-02-11T04:38:35.218Z,0.90
2024-02-11T04:41:02.278Z,1.20
2024-02-11T04:43:28.739Z,1.10
2024-02-11T04:45:56.134Z,1.50
2024-02-11T04:48:26.160Z,1.20
2024-02-11T04:50:52.627Z,1.30
2024-02-11T04:53:21.824Z,1.20
2024-02-11T04:55:51.733Z,1.10
2024-02-11T04:58:20.400Z,1.20
2024-02-11T05:00:52.244Z,1.43
2024-02-11T05:03:19.585Z,1.10
2024-02-11T05:05:48.194Z,0.90
2024-02-11T05:08:17.743Z,1.20
2024-02-11T05:10:45.810Z,1.10
2024-02-11T05:13:14.922Z,1.20
2024-02-11T05:15:42.902Z,1.10
2024-02-11T05:18:12.869Z,1.10
2024-02-11T05:20:40.240Z,1.10
2024-02-11T05:23:10.149Z,1.00
2024-02-11T05:25:39.589Z,0.90
2024-02-11T05:28:12.620Z,0.90
2024-02-11T05:30:48.355Z,1.10
2024-02-11T05:33:20.466Z,1.00
2024-02-11T05:35:48.528Z,0.97
2024-02-11T05:38:15.947Z,1.20
2024-02-11T05:40:46.400Z,1.10
2024-02-11T05:43:14.132Z,1.00
2024-02-11T05:45:43.684Z,1.13
2024-02-11T05:48:12.510Z,1.00
2024-02-11T05:50:39.529Z,1.00
2024-02-11T05:53:05.956Z,1.00
2024-02-11T05:55:33.498Z,0.80
2024-02-11T05:58:00.540Z,1.00
2024-02-11T06:00:30.986Z,0.87
2024-02-11T06:02:57.496Z,0.97
2024-02-11T06:05:25.912Z,1.00
2024-02-11T06:07:56.853Z,1.30
2024-02-11T06:10:24.964Z,1.13
2024-02-11T06:12:51.841Z,1.13
2024-02-11T06:15:21.406Z,1.10
2024-02-11T06:17:49.312Z,1.17
2024-02-11T06:20:19.047Z,1.40
2024-02-11T06:22:56.222Z,1.23
2024-02-11T06:25:26.795Z,1.30
2024-02-11T06:27:54.393Z,1.30
2024-02-11T06:30:21.983Z,1.50
2024-02-11T06:32:57.521Z,1.40
2024-02-11T06:35:25.162Z,1.47
2024-02-11T06:37:52.449Z,1.67
2024-02-11T06:40:23.304Z,2.00
2024-02-11T06:42:52.170Z,2.00
2024-02-11T06:45:19.767Z,1.50
2024-02-11T06:47:46.988Z,1.87
2024-02-11T06:50:15.786Z,1.50
2024-02-11T06:52:43.660Z,1.40
2024-02-11T06:55:12.655Z,1.93
2024-02-11T06:57:41.114Z,1.47
2024-02-11T07:00:11.759Z,1.70
2024-02-11T07:02:38.756Z,1.73
2024-02-11T07:05:06.779Z,2.00
2024-02-11T07:07:34.611Z,2.03
2024-02-11T07:10:01.294Z,1.73
2024-02-11T07:12:27.694Z,1.97
2024-02-11T07:14:54.082Z,1.77
2024-02-11T07:17:22.237Z,1.70
2024-02-11T07:19:53.818Z,1.90
2024-02-11T07:22:20.934Z,2.00
2024-02-11T07:24:48.393Z,2.00
2024-02-11T07:27:15.570Z,2.20
2024-02-11T07:29:43.288Z,2.43
2024-02-11T07:32:09.846Z,2.23
2024-02-11T07:34:36.473Z,2.60
2024-02-11T07:37:03.833Z,2.87
2024-02-11T07:39:30.725Z,2.80
2024-02-11T07:41:57.087Z,3.00
2024-02-11T07:44:24.714Z,3.10
2024-02-11T07:46:54.403Z,3.47
2024-02-11T07:49:24.678Z,3.17
2024-02-11T07:51:52.012Z,3.17
2024-02-11T07:54:21.236Z,3.40
2024-02-11T07:56:50.841Z,3.33
2024-02-11T07:59:17.486Z,3.33
2024-02-11T08:01:44.376Z,3.67
2024-02-11T08:04:11.687Z,3.53
2024-02-11T08:06:38.179Z,3.80
2024-02-11T08:09:10.110Z,3.63
2024-02-11T08:11:37.426Z,3.63
2024-02-11T08:14:05.127Z,3.33
2024-02-11T08:16:31.750Z,3.40
2024-02-11T08:18:58.137Z,4.30
2024-02-11T08:21:25.503Z,4.20
2024-02-11T08:23:51.943Z,3.97
2024-02-11T08:26:18.658Z,4.20
2024-02-11T08:28:45.768Z,4.00
2024-02-11T08:31:13.485Z,4.40
2024-02-11T08:33:44.144Z,4.23
2024-02-11T08:36:10.578Z,4.17
2024-02-11T08:38:37.017Z,4.20
2024-02-11T08:41:03.933Z,4.67
2024-02-11T08:43:30.791Z,4.07
2024-02-11T08:45:59.799Z,4.70
2024-02-11T08:48:26.347Z,4.33
2024-02-11T08:50:55.502Z,4.47
2024-02-11T08:53:22.700Z,4.60
2024-02-11T08:55:49.128Z,4.47
2024-02-11T08:58:18.290Z,4.77
2024-02-11T09:00:44.990Z,4.30
2024-02-11T09:03:11.515Z,4.60
2024-02-11T09:05:37.974Z,4.37
2024-02-11T09:08:04.780Z,4.20
2024-02-11T09:10:31.212Z,4.33
2024-02-11T09:12:57.646Z,4.30
2024-02-11T09:15:24.112Z,4.43
2024-02-11T09:17:50.599Z,4.80
2024-02-11T09:20:17.514Z,4.43
2024-02-11T09:22:44.164Z,4.30
2024-02-11T09:25:14.965Z,4.50
2024-02-11T09:27:41.439Z,3.97
2024-02-11T09:30:08.897Z,4.10
2024-02-11T09:32:35.749Z,4.87
2024-02-11T09:35:03.995Z,4.40
2024-02-11T09:37:32.409Z,3.90
2024-02-11T09:39:59.808Z,4.07
2024-02-11T09:42:26.715Z,4.30
2024-02-11T09:44:54.716Z,4.27
2024-02-11T09:47:23.304Z,3.90
2024-02-11T09:49:53.603Z,4.37
2024-02-11T09:52:22.087Z,4.20
2024-02-11T09:54:49.670Z,4.17
2024-02-11T09:57:16.497Z,4.23
2024-02-11T09:59:42.865Z,4.10
2024-02-11T10:02:17.847Z,3.90
2024-02-11T10:04:45.057Z,4.20
2024-02-11T10:07:23.986Z,3.37
2024-02-11T10:09:53.983Z,4.20
2024-02-11T10:12:21.198Z,4.07
2024-02-11T10:14:59.565Z,3.63
2024-02-11T10:17:26.323Z,4.10
2024-02-11T10:19:53.452Z,3.43
2024-02-11T10:22:28.074Z,3.70
2024-02-11T10:24:57.793Z,3.43
2024-02-11T10:27:25.188Z,3.57
2024-02-11T10:29:51.798Z,3.77
2024-02-11T10:32:18.464Z,3.30
2024-02-11T10:34:45.091Z,3.13
2024-02-11T10:37:13.837Z,3.50
2024-02-11T10:39:44.885Z,3.10
2024-02-11T10:42:12.830Z,3.07
2024-02-11T10:44:40.011Z,3.00
2024-02-11T10:47:09.839Z,2.50
2024-02-11T10:49:36.450Z,2.60
2024-02-11T10:52:12.896Z,2.83
2024-02-11T10:54:43.644Z,3.37
2024-02-11T10:57:20.117Z,3.17
2024-02-11T11:00:08.248Z,2.70
2024-02-11T11:02:37.891Z,2.67
2024-02-11T11:05:11.929Z,2.17
2024-02-11T11:07:40.576Z,2.60
2024-02-11T11:10:11.424Z,2.20
2024-02-11T11:12:49.304Z,1.90
2024-02-11T11:15:22.967Z,2.00
2024-02-11T11:17:49.576Z,1.57
2024-02-11T11:20:17.054Z,1.80
2024-02-11T11:22:51.303Z,1.53
2024-02-11T11:25:21.900Z,1.47
2024-02-11T11:27:49.333Z,1.73
2024-02-11T11:30:15.798Z,1.90
2024-02-11T11:32:47.637Z,1.70
2024-02-11T11:35:22.925Z,1.80
2024-02-11T11:37:50.667Z,2.00
2024-02-11T11:40:18.090Z,2.20
2024-02-11T11:42:44.678Z,1.70
2024-02-11T11:45:11.785Z,1.60
2024-02-11T11:47:38.801Z,1.40
2024-02-11T11:50:07.142Z,1.37
2024-02-11T11:52:34.734Z,1.37
2024-02-11T11:55:04.357Z,1.50
2024-02-11T11:57:33.728Z,1.40
2024-02-11T12:00:01.147Z,1.50
2024-02-11T12:02:27.788Z,1.40
2024-02-11T12:04:54.838Z,1.40
2024-02-11T12:07:22.701Z,1.70
2024-02-11T12:09:53.171Z,1.67
2024-02-11T12:12:21.179Z,1.43
2024-02-11T12:14:48.204Z,1.53
2024-02-11T12:17:14.833Z,1.67
2024-02-11T12:19:45.312Z,1.73
2024-02-11T12:22:12.861Z,1.50
2024-02-11T12:24:39.992Z,1.60
2024-02-11T12:27:06.853Z,2.10
2024-02-11T12:29:33.371Z,1.53
2024-02-11T12:32:03.118Z,1.90
2024-02-11T12:34:30.639Z,1.63
2024-02-11T12:37:05.341Z,1.37
2024-02-11T12:39:32.272Z,1.10
2024-02-11T12:41:58.617Z,1.37
2024-02-11T12:44:26.769Z,1.40
2024-02-11T12:46:53.332Z,1.30
2024-02-11T12:49:20.122Z,1.53
2024-02-11T12:51:47.250Z,1.50
2024-02-11T12:54:13.677Z,1.53
2024-02-11T12:56:40.529Z,1.40
2024-02-11T12:59:09.412Z,1.80
2024-02-11T13:01:36.816Z,1.60
2024-02-11T13:04:03.676Z,1.20
2024-02-11T13:06:30.136Z,1.20
2024-02-11T13:08:56.847Z,1.27
2024-02-11T13:11:24.235Z,1.20
2024-02-11T13:13:52.283Z,1.23
2024-02-11T13:16:19.891Z,1.40
2024-02-11T13:18:47.312Z,1.23
2024-02-11T13:21:15.137Z,1.23
2024-02-11T13:23:42.117Z,1.40
2024-02-11T13:26:08.607Z,1.50
2024-02-11T13:28:35.205Z,1.53
2024-02-11T13:31:10.536Z,1.47
2024-02-11T13:33:46.483Z,1.57
2024-02-11T13:36:14.951Z,1.20
2024-02-11T13:38:41.562Z,1.30
2024-02-11T13:41:08.490Z,1.37
2024-02-11T13:43:35.003Z,1.47
2024-02-11T13:46:01.609Z,1.23
2024-02-11T13:48:28.209Z,1.20
2024-02-11T13:50:54.986Z,1.40
2024-02-11T13:53:21.717Z,1.30
2024-02-11T13:55:48.220Z,1.17
2024-02-11T13:58:16.129Z,1.17
2024-02-11T14:00:42.558Z,1.37
2024-02-11T14:03:09.792Z,1.30
2024-02-11T14:05:36.521Z,1.20
2024-02-11T14:08:04.965Z,1.20
2024-02-11T14:10:31.529Z,1.60
2024-02-11T14:13:01.760Z,1.40
2024-02-11T14:15:28.537Z,1.60
2024-02-11T14:17:57.310Z,1.60
2024-02-11T14:20:24.094Z,1.70
2024-02-11T14:22:51.036Z,1.50
2024-02-11T14:25:19.902Z,1.30
2024-02-11T14:27:48.658Z,1.20
2024-02-11T14:30:19.276Z,1.30
2024-02-11T14:32:50.142Z,1.20
2024-02-11T14:35:17.505Z,1.47
2024-02-11T14:37:44.110Z,1.30
2024-02-11T14:40:14.069Z,1.00
2024-02-11T14:42:41.745Z,1.10
2024-02-11T14:45:09.680Z,1.10
2024-02-11T14:47:40.266Z,1.20
2024-02-11T14:50:09.356Z,1.40
2024-02-11T14:52:36.775Z,1.30
2024-02-11T14:55:03.341Z,1.33
2024-02-11T14:57:29.792Z,1.37
2024-02-11T14:59:56.638Z,1.13
2024-02-11T15:02:23.173Z,1.27
2024-02-11T15:04:51.034Z,1.33
2024-02-11T15:07:18.370Z,1.73
2024-02-11T15:09:45.028Z,1.10
2024-02-11T15:12:11.962Z,0.90
2024-02-11T15:14:40.364Z,1.10
2024-02-11T15:17:06.804Z,1.30
2024-02-11T15:19:36.175Z,1.00
2024-02-11T15:22:03.811Z,1.10
2024-02-11T15:24:30.179Z,1.00
2024-02-11T15:26:56.505Z,1.20
2024-02-11T15:29:22.939Z,1.20
2024-02-11T15:31:49.418Z,1.00
2024-02-11T15:34:15.981Z,0.97
2024-02-11T15:36:44.245Z,1.03
2024-02-11T15:39:10.616Z,1.10
2024-02-11T15:41:37.548Z,1.20
2024-02-11T15:44:05.357Z,1.10
2024-02-11T15:46:31.746Z,1.07
2024-02-11T15:48:58.320Z,1.07
2024-02-11T15:51:24.745Z,1.17
2024-02-11T15:53:52.244Z,1.37
2024-02-11T15:56:18.931Z,1.30
2024-02-11T15:58:45.446Z,1.30
2024-02-11T16:01:12.009Z,1.30
2024-02-11T16:03:43.350Z,1.57
2024-02-11T16:06:09.765Z,1.37
2024-02-11T16:08:37.734Z,1.57
2024-02-11T16:11:05.372Z,1.63
2024-02-11T16:13:32.033Z,1.53
2024-02-11T16:15:58.731Z,1.40
2024-02-11T16:18:25.317Z,1.57
2024-02-11T16:20:51.765Z,1.50
2024-02-11T16:23:18.128Z,1.53
2024-02-11T16:25:47.313Z,1.50
2024-02-11T16:28:13.679Z,1.47
2024-02-11T16:30:40.082Z,2.00
2024-02-11T16:33:06.632Z,1.60
2024-02-11T16:35:33.568Z,2.07
2024-02-11T16:38:00.251Z,2.50
2024-02-11T16:40:26.823Z,2.70
2024-02-11T16:42:53.659Z,3.03
2024-02-11T16:45:20.421Z,2.37
2024-02-11T16:47:46.921Z,2.07
2024-02-11T16:50:13.400Z,2.43
2024-02-11T16:52:40.382Z,2.27
2024-02-11T16:55:09.697Z,2.60
2024-02-11T16:57:36.385Z,2.63
2024-02-11T17:00:04.752Z,2.77
2024-02-11T17:02:31.734Z,2.50
2024-02-11T17:05:00.005Z,1.90
2024-02-11T17:07:30.052Z,2.13
2024-02-11T17:09:57.383Z,2.20
2024-02-11T17:12:27.154Z,1.97
2024-02-11T17:14:54.456Z,1.90
2024-02-11T17:17:21.692Z,1.90
2024-02-11T17:19:51.364Z,2.00
2024-02-11T17:22:18.628Z,2.57
2024-02-11T17:24:46.657Z,2.53
2024-02-11T17:27:14.314Z,2.30
2024-02-11T17:29:40.727Z,2.50
2024-02-11T17:32:17.263Z,2.30
2024-02-11T17:34:53.210Z,2.07
2024-02-11T17:37:19.744Z,2.47
2024-02-11T17:39:46.114Z,4.03
2024-02-11T17:42:12.514Z,3.43
2024-02-11T17:44:41.754Z,3.63
2024-02-11T17:47:08.805Z,2.47
2024-02-11T17:49:35.428Z,2.73
2024-02-11T17:52:02.677Z,2.60
2024-02-11T17:54:38.045Z,2.10
2024-02-11T17:57:07.565Z,2.87
2024-02-11T17:59:34.578Z,2.43
2024-02-11T18:02:01.076Z,2.27
2024-02-11T18:04:28.145Z,2.50
2024-02-11T18:06:54.667Z,2.27
2024-02-11T18:09:21.115Z,2.60
2024-02-11T18:11:48.124Z,2.37
2024-02-11T18:14:18.624Z,2.30
2024-02-11T18:16:45.514Z,2.10
2024-02-11T18:19:13.748Z,2.13
2024-02-11T18:21:40.322Z,2.83
2024-02-11T18:24:07.251Z,2.37
2024-02-11T18:26:33.698Z,2.40
2024-02-11T18:29:00.150Z,2.23
2024-02-11T18:31:28.074Z,2.97
2024-02-11T18:33:54.566Z,3.43
2024-02-11T18:36:21.002Z,6.23
2024-02-11T18:38:47.880Z,22.63
2024-02-11T18:41:14.551Z,7.70
2024-02-11T18:43:41.167Z,4.10
2024-02-11T18:46:08.076Z,3.00
2024-02-11T18:48:35.072Z,2.73
2024-02-11T18:51:05.596Z,2.33
2024-02-11T18:53:32.101Z,2.13
2024-02-11T18:55:58.792Z,2.20
2024-02-11T18:58:25.134Z,2.50
2024-02-11T19:00:53.218Z,2.07
2024-02-11T19:03:19.659Z,2.17
2024-02-11T19:05:46.148Z,2.20
2024-02-11T19:08:12.560Z,2.13
2024-02-11T19:10:39.687Z,2.40
2024-02-11T19:13:06.612Z,2.30
2024-02-11T19:15:32.984Z,2.50
2024-02-11T19:18:02.969Z,2.70
2024-02-11T19:20:29.939Z,2.57
2024-02-11T19:22:56.629Z,2.27
2024-02-11T19:25:23.704Z,2.33
2024-02-11T19:27:52.858Z,3.00
2024-02-11T19:30:19.393Z,2.83
2024-02-11T19:32:46.767Z,3.10
2024-02-11T19:35:15.754Z,2.80
2024-02-11T19:37:42.462Z,2.90
2024-02-11T20:03:04.092Z,1.80
2024-02-11T20:05:31.555Z,1.90
2024-02-11T20:07:58.455Z,2.33
2024-02-11T20:10:24.898Z,1.90
2024-02-11T20:12:52.186Z,1.53
2024-02-11T20:15:18.749Z,1.60
2024-02-11T20:17:46.080Z,1.40
2024-02-11T20:20:16.412Z,1.50
2024-02-11T20:22:44.591Z,1.60
2024-02-11T20:25:10.990Z,1.67
2024-02-11T20:27:37.965Z,1.40
2024-02-11T20:30:04.991Z,2.00
2024-02-11T20:32:35.866Z,1.50
2024-02-11T20:35:03.039Z,1.50
2024-02-11T20:37:34.395Z,1.50
2024-02-11T20:40:06.284Z,1.97
2024-02-11T20:42:33.816Z,1.93
2024-02-11T20:45:00.739Z,2.00
2024-02-11T20:47:31.131Z,1.97
2024-02-11T20:49:58.176Z,2.03
2024-02-11T20:52:24.649Z,1.90
2024-02-11T20:54:53.137Z,2.00
2024-02-11T20:57:20.755Z,2.10
2024-02-11T20:59:47.237Z,2.50
2024-02-11T21:02:13.708Z,2.30
2024-02-11T21:04:40.105Z,2.23
2024-02-11T21:07:06.854Z,2.43
2024-02-11T21:09:33.568Z,3.00
2024-02-11T21:11:59.915Z,2.40
2024-02-11T21:14:27.931Z,2.27
2024-02-11T21:16:54.377Z,2.37
2024-02-11T21:19:21.663Z,2.47
2024-02-11T21:21:48.438Z,2.40
2024-02-11T21:24:15.897Z,2.70
2024-02-11T21:26:42.386Z,3.00
2024-02-11T21:29:09.220Z,3.00
2024-02-11T21:31:37.016Z,2.70
2024-02-11T21:34:03.497Z,2.40
2024-02-11T21:36:29.968Z,2.30
2024-02-11T21:38:57.167Z,2.40
2024-02-11T21:41:24.012Z,2.53
2024-02-11T21:43:53.587Z,2.20
2024-02-11T21:46:21.525Z,2.30
2024-02-11T21:49:00.024Z,2.40
2024-02-11T21:51:27.080Z,2.40
2024-02-11T21:53:53.497Z,2.07
2024-02-11T21:56:22.629Z,2.40
2024-02-11T21:58:49.076Z,2.20
2024-02-11T22:01:15.540Z,2.60
2024-02-11T22:03:41.909Z,2.60
2024-02-11T22:06:08.505Z,2.33
2024-02-11T22:08:35.081Z,2.40
2024-02-11T22:11:03.054Z,2.13
2024-02-11T22:13:30.924Z,2.40
2024-02-11T22:15:57.294Z,2.30
2024-02-11T22:18:23.997Z,2.70
2024-02-11T22:20:50.479Z,1.97
2024-02-11T22:23:16.877Z,2.70
2024-02-11T22:25:43.308Z,2.07
2024-02-11T22:28:11.264Z,2.43
2024-02-11T22:30:37.898Z,2.40
2024-02-11T22:33:05.101Z,2.30
2024-02-11T22:35:31.610Z,2.00
2024-02-11T22:37:58.010Z,1.87
2024-02-11T22:40:24.358Z,1.80
2024-02-11T22:42:50.787Z,1.80
2024-02-11T22:45:19.983Z,1.70
2024-02-11T22:47:46.722Z,1.90
2024-02-11T22:50:13.549Z,1.70
2024-02-11T22:52:40.288Z,1.80
2024-02-11T22:55:09.019Z,2.10
2024-02-11T22:57:35.745Z,1.97
2024-02-11T23:00:03.182Z,2.57
2024-02-11T23:02:30.343Z,2.90
2024-02-11T23:04:56.947Z,2.60
2024-02-11T23:07:25.502Z,3.20
2024-02-11T23:09:51.905Z,2.80
2024-02-11T23:12:18.253Z,2.83
2024-02-11T23:14:45.286Z,2.53
2024-02-11T23:17:11.887Z,2.67
2024-02-11T23:19:39.673Z,2.53
2024-02-11T23:22:06.260Z,2.00
2024-02-11T23:24:32.610Z,2.33
2024-02-11T23:27:06.423Z,1.73
2024-02-11T23:29:35.774Z,2.00
2024-02-11T23:32:02.378Z,2.00
2024-02-11T23:34:30.365Z,1.90
2024-02-11T23:37:01.934Z,1.67
2024-02-11T23:39:28.345Z,1.57
2024-02-11T23:41:57.768Z,1.67
2024-02-11T23:44:24.274Z,2.27
2024-02-11T23:46:53.234Z,1.90
2024-02-11T23:49:23.221Z,1.53
2024-02-11T23:51:49.813Z,1.47
2024-02-11T23:54:17.131Z,1.40
2024-02-11T23:56:44.326Z,1.50
2024-02-11T23:59:11.778Z,1.40
